sensor_id;sensor_type;location;lat;lon;timestamp;P1;durP1;ratioP1;P2;durP2;ratioP2
7031;SDS011;3557;48.880;8.328;2023-02-11T00:00:23;21.27;;;11.33;;
7031;SDS011;3557;48.880;8.328;2023-02-11T00:02:50;21.67;;;11.07;;
7031;SDS011;3557;48.880;8.328;2023-02-11T00:05:19;19.37;;;10.57;;
7031;SDS011;3557;48.880;8.328;2023-02-11T00:07:46;19.77;;;11.10;;
7031;SDS011;3557;48.880;8.328;2023-02-11T00:10:14;19.43;;;9.87;;
7031;SDS011;3557;48.880;8.328;2023-02-11T00:12:41;23.77;;;11.90;;
7031;SDS011;3557;48.880;8.328;2023-02-11T00:15:09;17.00;;;10.17;;
7031;SDS011;3557;48.880;8.328;2023-02-11T00:17:37;25.20;;;12.30;;
7031;SDS011;3557;48.880;8.328;2023-02-11T00:20:05;18.87;;;10.30;;
7031;SDS011;3557;48.880;8.328;2023-02-11T00:22:34;22.23;;;10.90;;
7031;SDS011;3557;48.880;8.328;2023-02-11T00:25:01;21.77;;;10.70;;
7031;SDS011;3557;48.880;8.328;2023-02-11T00:27:29;20.07;;;10.30;;
7031;SDS011;3557;48.880;8.328;2023-02-11T00:29:57;17.90;;;10.13;;
7031;SDS011;3557;48.880;8.328;2023-02-11T00:32:29;18.83;;;10.10;;
7031;SDS011;3557;48.880;8.328;2023-02-11T00:34:56;21.73;;;10.50;;
7031;SDS011;3557;48.880;8.328;2023-02-11T00:37:23;20.63;;;11.00;;
7031;SDS011;3557;48.880;8.328;2023-02-11T00:39:52;17.60;;;9.40;;
7031;SDS011;3557;48.880;8.328;2023-02-11T00:42:20;20.03;;;10.07;;
7031;SDS011;3557;48.880;8.328;2023-02-11T00:44:47;19.60;;;9.90;;
7031;SDS011;3557;48.880;8.328;2023-02-11T00:47:15;20.17;;;10.33;;
7031;SDS011;3557;48.880;8.328;2023-02-11T00:49:42;19.97;;;9.93;;
7031;SDS011;3557;48.880;8.328;2023-02-11T00:52:10;18.87;;;10.40;;
7031;SDS011;3557;48.880;8.328;2023-02-11T00:54:38;17.93;;;10.40;;
7031;SDS011;3557;48.880;8.328;2023-02-11T00:57:07;20.70;;;10.77;;
7031;SDS011;3557;48.880;8.328;2023-02-11T00:59:35;19.87;;;10.03;;
7031;SDS011;3557;48.880;8.328;2023-02-11T01:02:02;17.90;;;9.67;;
7031;SDS011;3557;48.880;8.328;2023-02-11T01:04:30;16.63;;;9.57;;
7031;SDS011;3557;48.880;8.328;2023-02-11T01:06:57;14.20;;;8.30;;
7031;SDS011;3557;48.880;8.328;2023-02-11T01:09:25;18.30;;;10.07;;
7031;SDS011;3557;48.880;8.328;2023-02-11T01:11:52;20.50;;;10.10;;
7031;SDS011;3557;48.880;8.328;2023-02-11T01:14:21;17.57;;;9.77;;
7031;SDS011;3557;48.880;8.328;2023-02-11T01:16:49;18.43;;;9.23;;
7031;SDS011;3557;48.880;8.328;2023-02-11T01:19:19;20.90;;;9.53;;
7031;SDS011;3557;48.880;8.328;2023-02-11T01:21:47;18.30;;;9.60;;
7031;SDS011;3557;48.880;8.328;2023-02-11T01:24:14;13.87;;;8.90;;
7031;SDS011;3557;48.880;8.328;2023-02-11T01:26:42;15.93;;;9.30;;
7031;SDS011;3557;48.880;8.328;2023-02-11T01:29:10;17.80;;;9.67;;
7031;SDS011;3557;48.880;8.328;2023-02-11T01:31:39;20.20;;;9.47;;
7031;SDS011;3557;48.880;8.328;2023-02-11T01:34:06;17.27;;;9.07;;
7031;SDS011;3557;48.880;8.328;2023-02-11T01:36:35;16.17;;;8.70;;
7031;SDS011;3557;48.880;8.328;2023-02-11T01:39:03;17.53;;;9.70;;
7031;SDS011;3557;48.880;8.328;2023-02-11T01:41:30;16.37;;;9.53;;
7031;SDS011;3557;48.880;8.328;2023-02-11T01:46:50;16.87;;;9.57;;
7031;SDS011;3557;48.880;8.328;2023-02-11T01:49:19;20.57;;;9.67;;
7031;SDS011;3557;48.880;8.328;2023-02-11T01:51:50;15.77;;;9.17;;
7031;SDS011;3557;48.880;8.328;2023-02-11T01:54:23;18.93;;;9.97;;
7031;SDS011;3557;48.880;8.328;2023-02-11T01:57:12;15.40;;;8.87;;
7031;SDS011;3557;48.880;8.328;2023-02-11T01:59:53;16.33;;;8.93;;
7031;SDS011;3557;48.880;8.328;2023-02-11T02:02:47;18.77;;;9.07;;
7031;SDS011;3557;48.880;8.328;2023-02-11T02:05:20;14.57;;;8.00;;
7031;SDS011;3557;48.880;8.328;2023-02-11T02:07:55;14.80;;;8.33;;
7031;SDS011;3557;48.880;8.328;2023-02-11T02:10:29;21.10;;;9.47;;
7031;SDS011;3557;48.880;8.328;2023-02-11T02:12:57;18.03;;;9.00;;
7031;SDS011;3557;48.880;8.328;2023-02-11T02:15:26;15.93;;;9.03;;
7031;SDS011;3557;48.880;8.328;2023-02-11T02:18:04;17.57;;;9.50;;
7031;SDS011;3557;48.880;8.328;2023-02-11T02:24:01;17.57;;;9.67;;
7031;SDS011;3557;48.880;8.328;2023-02-11T02:33:22;18.17;;;9.20;;
7031;SDS011;3557;48.880;8.328;2023-02-11T02:36:01;17.40;;;8.80;;
7031;SDS011;3557;48.880;8.328;2023-02-11T02:38:36;16.70;;;8.70;;
7031;SDS011;3557;48.880;8.328;2023-02-11T02:41:07;15.07;;;8.13;;
7031;SDS011;3557;48.880;8.328;2023-02-11T02:43:37;15.20;;;8.03;;
7031;SDS011;3557;48.880;8.328;2023-02-11T02:46:11;16.63;;;8.37;;
7031;SDS011;3557;48.880;8.328;2023-02-11T02:48:42;14.73;;;8.33;;
7031;SDS011;3557;48.880;8.328;2023-02-11T02:51:14;14.20;;;8.20;;
7031;SDS011;3557;48.880;8.328;2023-02-11T02:54:24;14.47;;;8.17;;
7031;SDS011;3557;48.880;8.328;2023-02-11T02:57:13;16.37;;;8.53;;
7031;SDS011;3557;48.880;8.328;2023-02-11T02:59:57;15.00;;;8.87;;
7031;SDS011;3557;48.880;8.328;2023-02-11T03:02:50;17.20;;;9.40;;
7031;SDS011;3557;48.880;8.328;2023-02-11T03:05:30;16.17;;;8.87;;
7031;SDS011;3557;48.880;8.328;2023-02-11T03:08:06;15.00;;;8.20;;
7031;SDS011;3557;48.880;8.328;2023-02-11T03:10:36;16.53;;;7.80;;
7031;SDS011;3557;48.880;8.328;2023-02-11T03:13:07;14.00;;;7.73;;
7031;SDS011;3557;48.880;8.328;2023-02-11T03:15:36;18.70;;;9.70;;
7031;SDS011;3557;48.880;8.328;2023-02-11T03:18:07;16.97;;;8.30;;
7031;SDS011;3557;48.880;8.328;2023-02-11T03:20:39;15.73;;;9.03;;
7031;SDS011;3557;48.880;8.328;2023-02-11T03:23:10;17.97;;;8.10;;
7031;SDS011;3557;48.880;8.328;2023-02-11T03:25:41;15.90;;;8.90;;
7031;SDS011;3557;48.880;8.328;2023-02-11T03:28:12;16.57;;;8.93;;
7031;SDS011;3557;48.880;8.328;2023-02-11T03:30:45;14.00;;;7.67;;
7031;SDS011;3557;48.880;8.328;2023-02-11T03:33:21;12.00;;;7.63;;
7031;SDS011;3557;48.880;8.328;2023-02-11T03:35:54;16.17;;;8.40;;
7031;SDS011;3557;48.880;8.328;2023-02-11T03:38:25;15.43;;;7.27;;
7031;SDS011;3557;48.880;8.328;2023-02-11T03:40:56;12.87;;;7.90;;
7031;SDS011;3557;48.880;8.328;2023-02-11T03:43:25;14.43;;;7.20;;
7031;SDS011;3557;48.880;8.328;2023-02-11T03:45:56;15.47;;;7.63;;
7031;SDS011;3557;48.880;8.328;2023-02-11T03:48:24;12.97;;;7.60;;
7031;SDS011;3557;48.880;8.328;2023-02-11T03:50:56;15.23;;;8.40;;
7031;SDS011;3557;48.880;8.328;2023-02-11T03:53:25;17.67;;;8.33;;
7031;SDS011;3557;48.880;8.328;2023-02-11T03:55:53;17.23;;;8.47;;
7031;SDS011;3557;48.880;8.328;2023-02-11T03:58:21;14.57;;;8.03;;
7031;SDS011;3557;48.880;8.328;2023-02-11T04:00:49;12.83;;;7.80;;
7031;SDS011;3557;48.880;8.328;2023-02-11T04:03:16;12.70;;;7.40;;
7031;SDS011;3557;48.880;8.328;2023-02-11T04:05:44;14.90;;;7.87;;
7031;SDS011;3557;48.880;8.328;2023-02-11T04:08:12;16.90;;;8.13;;
7031;SDS011;3557;48.880;8.328;2023-02-11T04:10:40;16.23;;;8.70;;
7031;SDS011;3557;48.880;8.328;2023-02-11T04:13:07;13.80;;;8.10;;
7031;SDS011;3557;48.880;8.328;2023-02-11T04:15:35;12.70;;;7.47;;
7031;SDS011;3557;48.880;8.328;2023-02-11T04:18:02;17.30;;;8.70;;
7031;SDS011;3557;48.880;8.328;2023-02-11T04:20:30;15.23;;;9.13;;
7031;SDS011;3557;48.880;8.328;2023-02-11T04:22:57;13.77;;;7.50;;
7031;SDS011;3557;48.880;8.328;2023-02-11T04:25:26;11.87;;;7.07;;
7031;SDS011;3557;48.880;8.328;2023-02-11T04:27:53;10.77;;;7.23;;
7031;SDS011;3557;48.880;8.328;2023-02-11T04:30:21;14.47;;;7.93;;
7031;SDS011;3557;48.880;8.328;2023-02-11T04:32:48;11.47;;;7.57;;
7031;SDS011;3557;48.880;8.328;2023-02-11T04:35:18;12.80;;;7.00;;
7031;SDS011;3557;48.880;8.328;2023-02-11T04:37:46;11.93;;;6.90;;
7031;SDS011;3557;48.880;8.328;2023-02-11T04:40:13;9.20;;;5.83;;
7031;SDS011;3557;48.880;8.328;2023-02-11T04:42:42;13.20;;;7.53;;
7031;SDS011;3557;48.880;8.328;2023-02-11T04:45:09;13.77;;;7.23;;
7031;SDS011;3557;48.880;8.328;2023-02-11T04:47:36;10.37;;;6.27;;
7031;SDS011;3557;48.880;8.328;2023-02-11T04:50:04;10.70;;;6.30;;
7031;SDS011;3557;48.880;8.328;2023-02-11T04:52:32;10.50;;;6.20;;
7031;SDS011;3557;48.880;8.328;2023-02-11T04:54:59;8.80;;;6.03;;
7031;SDS011;3557;48.880;8.328;2023-02-11T04:57:26;10.13;;;6.03;;
7031;SDS011;3557;48.880;8.328;2023-02-11T04:59:55;8.43;;;5.03;;
7031;SDS011;3557;48.880;8.328;2023-02-11T05:02:22;7.77;;;5.33;;
7031;SDS011;3557;48.880;8.328;2023-02-11T05:04:50;7.67;;;5.13;;
7031;SDS011;3557;48.880;8.328;2023-02-11T05:07:17;7.60;;;4.90;;
7031;SDS011;3557;48.880;8.328;2023-02-11T05:09:45;7.30;;;4.90;;
7031;SDS011;3557;48.880;8.328;2023-02-11T05:12:12;7.67;;;5.07;;
7031;SDS011;3557;48.880;8.328;2023-02-11T05:14:40;7.50;;;4.80;;
7031;SDS011;3557;48.880;8.328;2023-02-11T05:17:09;9.40;;;5.10;;
7031;SDS011;3557;48.880;8.328;2023-02-11T05:19:37;7.40;;;4.67;;
7031;SDS011;3557;48.880;8.328;2023-02-11T05:22:04;11.07;;;5.80;;
7031;SDS011;3557;48.880;8.328;2023-02-11T05:24:31;7.13;;;4.50;;
7031;SDS011;3557;48.880;8.328;2023-02-11T05:26:59;8.10;;;4.60;;
7031;SDS011;3557;48.880;8.328;2023-02-11T05:29:27;7.07;;;4.77;;
7031;SDS011;3557;48.880;8.328;2023-02-11T05:31:54;8.17;;;4.50;;
7031;SDS011;3557;48.880;8.328;2023-02-11T05:34:24;11.90;;;6.70;;
7031;SDS011;3557;48.880;8.328;2023-02-11T05:36:52;8.63;;;5.20;;
7031;SDS011;3557;48.880;8.328;2023-02-11T05:39:19;9.07;;;5.60;;
7031;SDS011;3557;48.880;8.328;2023-02-11T05:41:47;8.57;;;5.67;;
7031;SDS011;3557;48.880;8.328;2023-02-11T05:44:14;10.10;;;5.07;;
7031;SDS011;3557;48.880;8.328;2023-02-11T05:46:41;11.70;;;6.83;;
7031;SDS011;3557;48.880;8.328;2023-02-11T05:49:09;12.87;;;7.10;;
7031;SDS011;3557;48.880;8.328;2023-02-11T05:51:37;7.30;;;4.87;;
7031;SDS011;3557;48.880;8.328;2023-02-11T05:54:05;11.57;;;5.80;;
7031;SDS011;3557;48.880;8.328;2023-02-11T05:56:32;6.67;;;4.90;;
7031;SDS011;3557;48.880;8.328;2023-02-11T05:59:00;9.80;;;5.20;;
7031;SDS011;3557;48.880;8.328;2023-02-11T06:01:27;7.93;;;4.90;;
7031;SDS011;3557;48.880;8.328;2023-02-11T06:03:55;6.77;;;4.67;;
7031;SDS011;3557;48.880;8.328;2023-02-11T06:06:22;7.77;;;5.00;;
7031;SDS011;3557;48.880;8.328;2023-02-11T06:08:52;9.17;;;5.47;;
7031;SDS011;3557;48.880;8.328;2023-02-11T06:11:20;10.57;;;5.70;;
7031;SDS011;3557;48.880;8.328;2023-02-11T06:13:48;8.57;;;4.90;;
7031;SDS011;3557;48.880;8.328;2023-02-11T06:16:15;9.07;;;5.63;;
7031;SDS011;3557;48.880;8.328;2023-02-11T06:18:43;7.87;;;5.50;;
7031;SDS011;3557;48.880;8.328;2023-02-11T06:21:10;7.67;;;5.40;;
7031;SDS011;3557;48.880;8.328;2023-02-11T06:23:38;9.00;;;5.07;;
7031;SDS011;3557;48.880;8.328;2023-02-11T06:26:07;10.90;;;5.50;;
7031;SDS011;3557;48.880;8.328;2023-02-11T06:28:41;8.10;;;5.53;;
7031;SDS011;3557;48.880;8.328;2023-02-11T06:31:08;7.73;;;5.03;;
7031;SDS011;3557;48.880;8.328;2023-02-11T06:33:35;7.47;;;5.17;;
7031;SDS011;3557;48.880;8.328;2023-02-11T06:36:03;9.40;;;5.03;;
7031;SDS011;3557;48.880;8.328;2023-02-11T06:38:39;8.63;;;4.93;;
7031;SDS011;3557;48.880;8.328;2023-02-11T06:41:09;9.53;;;5.27;;
7031;SDS011;3557;48.880;8.328;2023-02-11T06:43:37;10.60;;;5.87;;
7031;SDS011;3557;48.880;8.328;2023-02-11T06:46:05;11.00;;;7.00;;
7031;SDS011;3557;48.880;8.328;2023-02-11T06:48:33;9.33;;;6.03;;
7031;SDS011;3557;48.880;8.328;2023-02-11T06:51:02;10.20;;;6.40;;
7031;SDS011;3557;48.880;8.328;2023-02-11T06:53:33;10.30;;;6.83;;
7031;SDS011;3557;48.880;8.328;2023-02-11T06:56:02;8.87;;;6.27;;
7031;SDS011;3557;48.880;8.328;2023-02-11T06:58:32;10.37;;;6.37;;
7031;SDS011;3557;48.880;8.328;2023-02-11T07:01:01;11.00;;;6.13;;
7031;SDS011;3557;48.880;8.328;2023-02-11T07:03:31;11.30;;;6.17;;
7031;SDS011;3557;48.880;8.328;2023-02-11T07:06:00;9.93;;;6.27;;
7031;SDS011;3557;48.880;8.328;2023-02-11T07:08:27;9.07;;;6.00;;
7031;SDS011;3557;48.880;8.328;2023-02-11T07:10:55;9.37;;;6.40;;
7031;SDS011;3557;48.880;8.328;2023-02-11T07:13:22;8.13;;;5.43;;
7031;SDS011;3557;48.880;8.328;2023-02-11T07:15:51;10.70;;;6.80;;
7031;SDS011;3557;48.880;8.328;2023-02-11T07:18:19;12.77;;;6.80;;
7031;SDS011;3557;48.880;8.328;2023-02-11T07:20:46;12.37;;;7.10;;
7031;SDS011;3557;48.880;8.328;2023-02-11T07:23:14;11.47;;;6.33;;
7031;SDS011;3557;48.880;8.328;2023-02-11T07:25:41;11.33;;;6.67;;
7031;SDS011;3557;48.880;8.328;2023-02-11T07:28:08;11.80;;;6.63;;
7031;SDS011;3557;48.880;8.328;2023-02-11T07:30:36;10.77;;;6.87;;
7031;SDS011;3557;48.880;8.328;2023-02-11T07:33:04;10.10;;;6.30;;
7031;SDS011;3557;48.880;8.328;2023-02-11T07:35:32;10.73;;;6.70;;
7031;SDS011;3557;48.880;8.328;2023-02-11T07:37:59;9.60;;;6.47;;
7031;SDS011;3557;48.880;8.328;2023-02-11T07:40:27;14.27;;;7.30;;
7031;SDS011;3557;48.880;8.328;2023-02-11T07:42:55;11.43;;;6.23;;
7031;SDS011;3557;48.880;8.328;2023-02-11T07:45:23;11.23;;;6.80;;
7031;SDS011;3557;48.880;8.328;2023-02-11T07:47:50;9.77;;;6.70;;
7031;SDS011;3557;48.880;8.328;2023-02-11T07:50:19;9.33;;;6.30;;
7031;SDS011;3557;48.880;8.328;2023-02-11T07:52:46;11.03;;;6.70;;
7031;SDS011;3557;48.880;8.328;2023-02-11T07:55:13;10.67;;;7.23;;
7031;SDS011;3557;48.880;8.328;2023-02-11T07:57:41;10.40;;;7.33;;
7031;SDS011;3557;48.880;8.328;2023-02-11T08:00:10;11.20;;;7.10;;
7031;SDS011;3557;48.880;8.328;2023-02-11T08:02:39;12.13;;;7.53;;
7031;SDS011;3557;48.880;8.328;2023-02-11T08:05:06;14.37;;;7.37;;
7031;SDS011;3557;48.880;8.328;2023-02-11T08:07:35;13.80;;;8.00;;
7031;SDS011;3557;48.880;8.328;2023-02-11T08:10:03;14.57;;;8.67;;
7031;SDS011;3557;48.880;8.328;2023-02-11T08:12:31;13.17;;;8.30;;
7031;SDS011;3557;48.880;8.328;2023-02-11T08:14:58;16.23;;;8.93;;
7031;SDS011;3557;48.880;8.328;2023-02-11T08:17:26;16.10;;;9.30;;
7031;SDS011;3557;48.880;8.328;2023-02-11T08:19:53;14.63;;;8.63;;
7031;SDS011;3557;48.880;8.328;2023-02-11T08:22:20;12.77;;;8.20;;
7031;SDS011;3557;48.880;8.328;2023-02-11T08:24:49;12.60;;;8.50;;
7031;SDS011;3557;48.880;8.328;2023-02-11T08:27:16;15.87;;;8.47;;
7031;SDS011;3557;48.880;8.328;2023-02-11T08:29:44;11.73;;;7.63;;
7031;SDS011;3557;48.880;8.328;2023-02-11T08:32:11;13.03;;;8.10;;
7031;SDS011;3557;48.880;8.328;2023-02-11T08:34:39;12.10;;;7.83;;
7031;SDS011;3557;48.880;8.328;2023-02-11T08:37:06;13.77;;;8.13;;
7031;SDS011;3557;48.880;8.328;2023-02-11T08:39:34;13.17;;;8.33;;
7031;SDS011;3557;48.880;8.328;2023-02-11T08:42:02;12.03;;;7.83;;
7031;SDS011;3557;48.880;8.328;2023-02-11T08:44:30;14.37;;;8.03;;
7031;SDS011;3557;48.880;8.328;2023-02-11T08:46:57;13.77;;;7.87;;
7031;SDS011;3557;48.880;8.328;2023-02-11T08:49:25;13.20;;;8.43;;
7031;SDS011;3557;48.880;8.328;2023-02-11T08:51:54;12.13;;;7.40;;
7031;SDS011;3557;48.880;8.328;2023-02-11T08:54:26;11.80;;;7.27;;
7031;SDS011;3557;48.880;8.328;2023-02-11T08:56:53;10.57;;;7.20;;
7031;SDS011;3557;48.880;8.328;2023-02-11T08:59:22;12.23;;;7.97;;
7031;SDS011;3557;48.880;8.328;2023-02-11T09:01:50;13.13;;;7.33;;
7031;SDS011;3557;48.880;8.328;2023-02-11T09:04:17;12.50;;;7.70;;
7031;SDS011;3557;48.880;8.328;2023-02-11T09:06:45;12.77;;;8.40;;
7031;SDS011;3557;48.880;8.328;2023-02-11T09:09:13;11.20;;;7.67;;
7031;SDS011;3557;48.880;8.328;2023-02-11T09:11:41;13.93;;;8.33;;
7031;SDS011;3557;48.880;8.328;2023-02-11T09:14:12;11.70;;;7.57;;
7031;SDS011;3557;48.880;8.328;2023-02-11T09:16:45;11.23;;;6.77;;
7031;SDS011;3557;48.880;8.328;2023-02-11T09:19:12;10.83;;;6.90;;
7031;SDS011;3557;48.880;8.328;2023-02-11T09:21:39;11.93;;;7.27;;
7031;SDS011;3557;48.880;8.328;2023-02-11T09:24:07;11.70;;;7.20;;
7031;SDS011;3557;48.880;8.328;2023-02-11T09:26:35;10.93;;;7.13;;
7031;SDS011;3557;48.880;8.328;2023-02-11T09:29:03;10.50;;;6.63;;
7031;SDS011;3557;48.880;8.328;2023-02-11T09:31:31;11.83;;;6.97;;
7031;SDS011;3557;48.880;8.328;2023-02-11T09:34:01;10.93;;;6.83;;
7031;SDS011;3557;48.880;8.328;2023-02-11T09:36:32;12.57;;;6.43;;
7031;SDS011;3557;48.880;8.328;2023-02-11T09:39:03;9.57;;;6.03;;
7031;SDS011;3557;48.880;8.328;2023-02-11T09:45:00;10.70;;;5.70;;
7031;SDS011;3557;48.880;8.328;2023-02-11T09:47:29;9.07;;;5.80;;
7031;SDS011;3557;48.880;8.328;2023-02-11T09:50:01;11.37;;;6.00;;
7031;SDS011;3557;48.880;8.328;2023-02-11T09:52:32;9.80;;;6.40;;
7031;SDS011;3557;48.880;8.328;2023-02-11T09:55:08;10.03;;;6.70;;
7031;SDS011;3557;48.880;8.328;2023-02-11T09:57:43;10.17;;;6.57;;
7031;SDS011;3557;48.880;8.328;2023-02-11T10:00:18;11.37;;;6.50;;
7031;SDS011;3557;48.880;8.328;2023-02-11T10:03:02;9.80;;;6.00;;
7031;SDS011;3557;48.880;8.328;2023-02-11T10:06:00;10.60;;;6.33;;
7031;SDS011;3557;48.880;8.328;2023-02-11T10:08:49;9.97;;;6.70;;
7031;SDS011;3557;48.880;8.328;2023-02-11T10:11:25;10.10;;;7.03;;
7031;SDS011;3557;48.880;8.328;2023-02-11T10:14:00;11.33;;;7.63;;
7031;SDS011;3557;48.880;8.328;2023-02-11T10:16:42;10.77;;;7.37;;
7031;SDS011;3557;48.880;8.328;2023-02-11T10:19:26;11.77;;;7.67;;
7031;SDS011;3557;48.880;8.328;2023-02-11T10:22:05;11.43;;;7.80;;
7031;SDS011;3557;48.880;8.328;2023-02-11T10:24:37;14.53;;;8.63;;
7031;SDS011;3557;48.880;8.328;2023-02-11T10:27:07;14.17;;;9.20;;
7031;SDS011;3557;48.880;8.328;2023-02-11T10:29:43;14.33;;;9.07;;
7031;SDS011;3557;48.880;8.328;2023-02-11T10:32:15;16.33;;;9.50;;
7031;SDS011;3557;48.880;8.328;2023-02-11T10:34:57;15.00;;;9.57;;
7031;SDS011;3557;48.880;8.328;2023-02-11T10:37:29;16.30;;;9.77;;
7031;SDS011;3557;48.880;8.328;2023-02-11T10:39:56;18.30;;;9.90;;
7031;SDS011;3557;48.880;8.328;2023-02-11T10:42:24;19.00;;;10.47;;
7031;SDS011;3557;48.880;8.328;2023-02-11T10:44:54;15.67;;;10.07;;
7031;SDS011;3557;48.880;8.328;2023-02-11T10:47:26;15.70;;;9.53;;
7031;SDS011;3557;48.880;8.328;2023-02-11T10:49:56;16.17;;;9.47;;
7031;SDS011;3557;48.880;8.328;2023-02-11T10:52:29;14.33;;;8.60;;
7031;SDS011;3557;48.880;8.328;2023-02-11T10:54:58;15.30;;;8.90;;
7031;SDS011;3557;48.880;8.328;2023-02-11T10:57:30;15.03;;;9.10;;
7031;SDS011;3557;48.880;8.328;2023-02-11T11:00:03;14.90;;;9.50;;
7031;SDS011;3557;48.880;8.328;2023-02-11T11:02:41;14.83;;;9.80;;
7031;SDS011;3557;48.880;8.328;2023-02-11T11:05:15;14.07;;;9.43;;
7031;SDS011;3557;48.880;8.328;2023-02-11T11:07:52;16.40;;;9.20;;
7031;SDS011;3557;48.880;8.328;2023-02-11T11:10:28;13.47;;;8.97;;
7031;SDS011;3557;48.880;8.328;2023-02-11T11:13:13;14.93;;;9.30;;
7031;SDS011;3557;48.880;8.328;2023-02-11T11:16:08;16.27;;;8.83;;
7031;SDS011;3557;48.880;8.328;2023-02-11T11:18:45;12.25;;;8.48;;
7031;SDS011;3557;48.880;8.328;2023-02-11T11:21:14;13.60;;;8.77;;
7031;SDS011;3557;48.880;8.328;2023-02-11T11:23:48;12.67;;;8.00;;
7031;SDS011;3557;48.880;8.328;2023-02-11T11:26:21;15.70;;;8.57;;
7031;SDS011;3557;48.880;8.328;2023-02-11T11:28:50;10.93;;;7.10;;
7031;SDS011;3557;48.880;8.328;2023-02-11T11:31:27;11.98;;;7.68;;
7031;SDS011;3557;48.880;8.328;2023-02-11T11:34:00;10.82;;;7.30;;
7031;SDS011;3557;48.880;8.328;2023-02-11T11:36:35;11.10;;;6.90;;
7031;SDS011;3557;48.880;8.328;2023-02-11T11:39:16;10.88;;;6.93;;
7031;SDS011;3557;48.880;8.328;2023-02-11T11:41:48;12.15;;;7.57;;
7031;SDS011;3557;48.880;8.328;2023-02-11T11:44:22;10.77;;;6.72;;
7031;SDS011;3557;48.880;8.328;2023-02-11T11:47:04;9.32;;;6.47;;
7031;SDS011;3557;48.880;8.328;2023-02-11T11:49:43;8.70;;;6.35;;
7031;SDS011;3557;48.880;8.328;2023-02-11T11:52:17;11.70;;;6.72;;
7031;SDS011;3557;48.880;8.328;2023-02-11T11:54:54;11.95;;;7.18;;
7031;SDS011;3557;48.880;8.328;2023-02-11T11:57:28;11.77;;;7.13;;
7031;SDS011;3557;48.880;8.328;2023-02-11T11:59:57;9.55;;;6.45;;
7031;SDS011;3557;48.880;8.328;2023-02-11T12:02:34;14.10;;;7.00;;
7031;SDS011;3557;48.880;8.328;2023-02-11T12:05:41;12.45;;;6.90;;
7031;SDS011;3557;48.880;8.328;2023-02-11T12:08:13;9.82;;;7.30;;
7031;SDS011;3557;48.880;8.328;2023-02-11T12:13:39;15.63;;;7.95;;
7031;SDS011;3557;48.880;8.328;2023-02-11T12:16:22;9.88;;;7.32;;
7031;SDS011;3557;48.880;8.328;2023-02-11T12:19:08;13.25;;;9.13;;
7031;SDS011;3557;48.880;8.328;2023-02-11T12:22:08;12.85;;;8.15;;
7031;SDS011;3557;48.880;8.328;2023-02-11T12:24:50;12.70;;;8.45;;
7031;SDS011;3557;48.880;8.328;2023-02-11T12:27:31;12.75;;;8.32;;
7031;SDS011;3557;48.880;8.328;2023-02-11T12:30:15;12.07;;;8.57;;
7031;SDS011;3557;48.880;8.328;2023-02-11T12:33:05;13.40;;;8.75;;
7031;SDS011;3557;48.880;8.328;2023-02-11T12:35:43;15.23;;;8.77;;
7031;SDS011;3557;48.880;8.328;2023-02-11T12:38:23;13.30;;;8.55;;
7031;SDS011;3557;48.880;8.328;2023-02-11T12:41:03;12.18;;;7.97;;
7031;SDS011;3557;48.880;8.328;2023-02-11T12:44:09;12.93;;;7.80;;
7031;SDS011;3557;48.880;8.328;2023-02-11T12:46:47;13.23;;;8.45;;
7031;SDS011;3557;48.880;8.328;2023-02-11T12:52:32;14.68;;;9.07;;
7031;SDS011;3557;48.880;8.328;2023-02-11T12:55:10;15.90;;;9.13;;
7031;SDS011;3557;48.880;8.328;2023-02-11T12:57:46;13.55;;;9.20;;
7031;SDS011;3557;48.880;8.328;2023-02-11T13:00:17;12.07;;;8.73;;
7031;SDS011;3557;48.880;8.328;2023-02-11T13:02:49;14.35;;;9.32;;
7031;SDS011;3557;48.880;8.328;2023-02-11T13:05:24;14.48;;;9.23;;
7031;SDS011;3557;48.880;8.328;2023-02-11T13:07:55;14.65;;;9.27;;
7031;SDS011;3557;48.880;8.328;2023-02-11T13:10:30;14.75;;;8.82;;
7031;SDS011;3557;48.880;8.328;2023-02-11T13:13:01;12.65;;;8.93;;
7031;SDS011;3557;48.880;8.328;2023-02-11T13:15:44;15.00;;;9.30;;
7031;SDS011;3557;48.880;8.328;2023-02-11T13:18:18;14.65;;;9.52;;
7031;SDS011;3557;48.880;8.328;2023-02-11T13:21:07;13.35;;;9.45;;
7031;SDS011;3557;48.880;8.328;2023-02-11T13:23:56;14.80;;;9.50;;
7031;SDS011;3557;48.880;8.328;2023-02-11T13:26:36;12.30;;;8.48;;
7031;SDS011;3557;48.880;8.328;2023-02-11T13:29:14;14.38;;;9.52;;
7031;SDS011;3557;48.880;8.328;2023-02-11T13:31:53;15.10;;;9.32;;
7031;SDS011;3557;48.880;8.328;2023-02-11T13:34:25;14.60;;;9.60;;
7031;SDS011;3557;48.880;8.328;2023-02-11T13:37:21;12.93;;;9.30;;
7031;SDS011;3557;48.880;8.328;2023-02-11T13:39:57;14.63;;;10.38;;
7031;SDS011;3557;48.880;8.328;2023-02-11T13:42:27;16.50;;;9.55;;
7031;SDS011;3557;48.880;8.328;2023-02-11T13:44:55;16.30;;;10.15;;
7031;SDS011;3557;48.880;8.328;2023-02-11T13:47:27;15.82;;;10.88;;
7031;SDS011;3557;48.880;8.328;2023-02-11T13:49:58;15.38;;;10.68;;
7031;SDS011;3557;48.880;8.328;2023-02-11T13:52:27;14.45;;;9.93;;
7031;SDS011;3557;48.880;8.328;2023-02-11T13:54:58;14.55;;;9.98;;
7031;SDS011;3557;48.880;8.328;2023-02-11T13:57:32;16.90;;;10.93;;
7031;SDS011;3557;48.880;8.328;2023-02-11T14:00:05;15.95;;;10.48;;
7031;SDS011;3557;48.880;8.328;2023-02-11T14:03:31;15.98;;;10.80;;
7031;SDS011;3557;48.880;8.328;2023-02-11T14:06:21;18.35;;;10.13;;
7031;SDS011;3557;48.880;8.328;2023-02-11T14:17:51;17.08;;;10.65;;
7031;SDS011;3557;48.880;8.328;2023-02-11T14:20:32;15.95;;;10.55;;
7031;SDS011;3557;48.880;8.328;2023-02-11T14:23:15;14.90;;;9.60;;
7031;SDS011;3557;48.880;8.328;2023-02-11T14:25:57;13.68;;;10.55;;
7031;SDS011;3557;48.880;8.328;2023-02-11T14:28:34;17.50;;;9.95;;
7031;SDS011;3557;48.880;8.328;2023-02-11T14:31:04;15.68;;;10.35;;
7031;SDS011;3557;48.880;8.328;2023-02-11T14:33:41;17.75;;;10.80;;
7031;SDS011;3557;48.880;8.328;2023-02-11T14:36:29;14.48;;;10.25;;
7031;SDS011;3557;48.880;8.328;2023-02-11T14:39:27;14.82;;;9.68;;
7031;SDS011;3557;48.880;8.328;2023-02-11T14:42:14;16.70;;;11.25;;
7031;SDS011;3557;48.880;8.328;2023-02-11T14:44:45;17.95;;;10.57;;
7031;SDS011;3557;48.880;8.328;2023-02-11T14:47:15;16.25;;;10.80;;
7031;SDS011;3557;48.880;8.328;2023-02-11T14:49:46;15.73;;;11.13;;
7031;SDS011;3557;48.880;8.328;2023-02-11T14:52:24;16.55;;;10.48;;
7031;SDS011;3557;48.880;8.328;2023-02-11T14:54:59;19.50;;;11.55;;
7031;SDS011;3557;48.880;8.328;2023-02-11T14:57:40;15.55;;;10.43;;
7031;SDS011;3557;48.880;8.328;2023-02-11T15:00:13;21.55;;;12.00;;
7031;SDS011;3557;48.880;8.328;2023-02-11T15:02:44;18.10;;;11.07;;
7031;SDS011;3557;48.880;8.328;2023-02-11T15:05:12;17.52;;;11.85;;
7031;SDS011;3557;48.880;8.328;2023-02-11T15:07:43;16.67;;;11.43;;
7031;SDS011;3557;48.880;8.328;2023-02-11T15:10:20;15.70;;;10.35;;
7031;SDS011;3557;48.880;8.328;2023-02-11T15:12:54;15.82;;;10.90;;
7031;SDS011;3557;48.880;8.328;2023-02-11T15:15:21;14.98;;;10.02;;
7031;SDS011;3557;48.880;8.328;2023-02-11T15:17:49;18.05;;;11.35;;
7031;SDS011;3557;48.880;8.328;2023-02-11T15:20:18;17.75;;;11.38;;
7031;SDS011;3557;48.880;8.328;2023-02-11T15:22:54;16.50;;;10.85;;
7031;SDS011;3557;48.880;8.328;2023-02-11T15:25:25;18.70;;;11.70;;
7031;SDS011;3557;48.880;8.328;2023-02-11T15:27:53;18.13;;;10.73;;
7031;SDS011;3557;48.880;8.328;2023-02-11T15:30:26;17.90;;;12.43;;
7031;SDS011;3557;48.880;8.328;2023-02-11T15:32:59;19.05;;;12.90;;
7031;SDS011;3557;48.880;8.328;2023-02-11T15:35:31;18.80;;;12.77;;
7031;SDS011;3557;48.880;8.328;2023-02-11T15:38:00;19.60;;;11.85;;
7031;SDS011;3557;48.880;8.328;2023-02-11T15:40:31;16.40;;;11.65;;
7031;SDS011;3557;48.880;8.328;2023-02-11T15:43:01;17.15;;;11.07;;
7031;SDS011;3557;48.880;8.328;2023-02-11T15:45:30;19.52;;;12.23;;
7031;SDS011;3557;48.880;8.328;2023-02-11T15:48:06;16.58;;;11.43;;
7031;SDS011;3557;48.880;8.328;2023-02-11T15:50:37;18.50;;;11.68;;
7031;SDS011;3557;48.880;8.328;2023-02-11T15:53:14;17.65;;;11.40;;
7031;SDS011;3557;48.880;8.328;2023-02-11T15:55:53;16.05;;;11.30;;
7031;SDS011;3557;48.880;8.328;2023-02-11T15:58:26;16.80;;;11.93;;
7031;SDS011;3557;48.880;8.328;2023-02-11T16:00:54;17.40;;;11.13;;